createdAt,value
2018-07-15T19:24:33.186Z,43.90
2018-07-15T19:27:09.844Z,44.60
2018-07-15T19:29:40.458Z,44.60
2018-07-15T19:32:39.635Z,44.90
2018-07-15T19:37:46.556Z,45.00
2018-07-15T19:43:08.130Z,45.30
2018-07-15T19:45:39.127Z,45.30
2018-07-15T19:48:08.435Z,45.40
2018-07-15T19:50:36.921Z,45.40
2018-07-15T19:56:01.334Z,45.50
2018-07-15T19:58:35.214Z,45.60
2018-07-15T20:01:04.764Z,45.70
2018-07-15T20:03:37.926Z,45.70
2018-07-15T20:06:07.258Z,45.90
2018-07-15T20:08:40.628Z,45.90
2018-07-15T20:11:12.042Z,45.90
2018-07-15T20:19:06.225Z,46.40
2018-07-15T20:21:40.036Z,46.30
2018-07-15T20:24:08.907Z,46.40
2018-07-15T20:26:38.468Z,46.40
2018-07-15T20:29:08.365Z,46.50
2018-07-15T20:31:38.211Z,46.50
2018-07-15T20:34:08.806Z,46.60
2018-07-15T20:36:37.476Z,46.60
2018-07-15T20:39:09.683Z,46.80
2018-07-15T20:41:40.909Z,47.50
2018-07-15T20:46:39.399Z,47.10
2018-07-15T20:49:12.839Z,47.00
2018-07-15T21:08:50.488Z,47.40
2018-07-15T21:11:22.620Z,47.50
2018-07-15T21:30:58.525Z,47.80
2018-07-15T21:50:31.635Z,48.20
2018-07-15T21:53:02.453Z,48.20
2018-07-15T22:12:37.997Z,48.60
2018-07-15T22:15:07.254Z,48.60
2018-07-15T22:17:36.131Z,48.60
2018-07-15T22:20:10.916Z,48.70
2018-07-15T22:22:43.679Z,49.30
2018-07-15T22:42:17.132Z,49.20
2018-07-15T22:44:46.055Z,49.20
2018-07-15T22:47:17.600Z,49.20
2018-07-15T22:49:48.180Z,49.30
2018-07-15T22:52:17.462Z,49.50
2018-07-15T22:57:15.854Z,49.60
2018-07-15T22:59:45.511Z,49.60
2018-07-15T23:02:15.220Z,49.80
2018-07-15T23:05:53.781Z,49.80
2018-07-15T23:08:28.070Z,50.60
2018-07-15T23:10:59.222Z,50.10
2018-07-15T23:13:28.651Z,50.20
2018-07-15T23:15:57.485Z,50.30
2018-07-15T23:18:28.659Z,50.70
2018-07-15T23:20:59.181Z,50.50
2018-07-15T23:23:30.119Z,50.70
2018-07-15T23:25:58.952Z,50.80
2018-07-15T23:28:28.858Z,50.90
2018-07-15T23:30:57.614Z,51.00
2018-07-15T23:33:28.438Z,51.70
2018-07-15T23:35:57.336Z,51.10
2018-07-15T23:38:28.583Z,51.10
2018-07-15T23:41:01.979Z,51.30
2018-07-15T23:43:32.008Z,51.30
2018-07-15T23:46:00.761Z,51.50
2018-07-15T23:48:30.077Z,51.50
2018-07-15T23:50:59.438Z,51.50
2018-07-15T23:53:28.487Z,51.60
2018-07-15T23:55:57.291Z,51.70
